createdAt,value
2019-04-22T00:01:32.715Z,9.05
2019-04-22T00:04:09.038Z,7.70
2019-04-22T00:06:58.381Z,11.00
2019-04-22T00:09:30.911Z,11.68
2019-04-22T00:12:06.334Z,8.20
2019-04-22T00:14:30.780Z,8.08
2019-04-22T00:19:43.769Z,10.20
2019-04-22T00:22:17.925Z,8.90
2019-04-22T00:24:36.634Z,10.15
2019-04-22T00:27:14.097Z,7.58
2019-04-22T00:30:09.062Z,7.97
2019-04-22T00:32:36.581Z,10.90
2019-04-22T00:35:06.074Z,14.28
2019-04-22T00:37:47.310Z,10.50
2019-04-22T00:40:15.954Z,10.83
2019-04-22T00:42:50.205Z,19.63
2019-04-22T00:45:19.082Z,19.63
2019-04-22T00:47:44.896Z,10.00
2019-04-22T00:50:19.025Z,9.50
2019-04-22T00:52:52.529Z,11.03
2019-04-22T00:57:54.228Z,9.37
2019-04-22T01:00:29.244Z,10.90
2019-04-22T01:03:02.231Z,12.40
2019-04-22T01:05:27.886Z,9.63
2019-04-22T01:08:04.320Z,11.17
2019-04-22T01:10:36.602Z,12.53
2019-04-22T01:13:07.499Z,14.93
2019-04-22T01:15:34.412Z,10.17
2019-04-22T01:18:08.268Z,10.03
2019-04-22T01:21:00.953Z,10.53
2019-04-22T01:23:05.536Z,7.80
2019-04-22T01:25:37.561Z,12.03
2019-04-22T01:28:02.442Z,10.17
2019-04-22T01:30:28.763Z,13.80
2019-04-22T01:32:52.871Z,9.17
2019-04-22T01:35:34.592Z,12.00
2019-04-22T01:38:07.952Z,7.80
2019-04-22T01:40:52.594Z,11.33
2019-04-22T01:43:30.164Z,11.00
2019-04-22T01:45:56.106Z,11.37
2019-04-22T01:48:26.793Z,11.97
2019-04-22T01:50:54.747Z,8.73
2019-04-22T01:53:27.364Z,8.63
2019-04-22T01:55:57.438Z,9.37
2019-04-22T01:58:23.763Z,9.10
2019-04-22T02:01:02.262Z,12.80
2019-04-22T02:03:43.146Z,9.00
2019-04-22T02:06:07.202Z,9.40
2019-04-22T02:08:54.961Z,8.35
2019-04-22T02:11:08.058Z,9.17
2019-04-22T02:16:21.428Z,7.33
2019-04-22T02:21:08.958Z,6.50
2019-04-22T02:26:23.801Z,9.07
2019-04-22T02:34:09.280Z,6.43
2019-04-22T02:36:30.091Z,6.30
2019-04-22T02:44:10.659Z,10.70
2019-04-22T02:46:44.908Z,10.48
2019-04-22T02:49:11.694Z,8.90
2019-04-22T02:56:48.616Z,7.10
2019-04-22T03:04:10.902Z,8.27
2019-04-22T03:09:20.680Z,11.68
2019-04-22T03:14:11.823Z,6.90
2019-04-22T03:16:44.799Z,9.23
2019-04-22T03:19:47.020Z,9.07
2019-04-22T03:30:36.775Z,7.33
2019-04-22T03:37:50.349Z,5.57
2019-04-22T03:40:11.726Z,6.40
2019-04-22T03:42:45.643Z,9.83
2019-04-22T03:45:20.183Z,9.70
2019-04-22T03:47:47.993Z,9.03
2019-04-22T03:52:47.045Z,6.53
2019-04-22T03:55:07.420Z,7.78
2019-04-22T04:00:32.581Z,9.60
2019-04-22T04:02:55.940Z,7.70
2019-04-22T04:05:35.678Z,10.55
2019-04-22T04:12:56.195Z,7.77
2019-04-22T04:17:55.011Z,10.77
2019-04-22T04:28:27.084Z,7.43
2019-04-22T04:30:32.037Z,12.47
2019-04-22T04:33:04.849Z,6.40
2019-04-22T04:35:50.633Z,9.93
2019-04-22T04:37:58.655Z,9.03
2019-04-22T04:40:42.012Z,6.63
2019-04-22T04:43:07.598Z,8.90
2019-04-22T04:45:48.768Z,10.53
2019-04-22T04:48:14.503Z,11.03
2019-04-22T04:50:53.490Z,9.67
2019-04-22T04:55:49.115Z,10.43
2019-04-22T04:58:35.081Z,9.07
2019-04-22T05:00:57.779Z,9.90
2019-04-22T05:03:32.777Z,8.37
2019-04-22T05:08:38.571Z,8.98
2019-04-22T05:11:03.518Z,8.63
2019-04-22T05:13:33.205Z,13.62
2019-04-22T05:16:14.759Z,12.63
2019-04-22T05:18:31.253Z,6.92
2019-04-22T05:23:29.994Z,7.03
2019-04-22T05:26:07.306Z,9.88
2019-04-22T05:28:31.809Z,7.90
2019-04-22T05:31:03.371Z,7.50
2019-04-22T05:33:36.015Z,10.10
2019-04-22T05:36:07.499Z,6.03
2019-04-22T05:38:39.884Z,8.00
2019-04-22T05:41:11.546Z,6.20
2019-04-22T05:43:42.594Z,8.70
2019-04-22T05:46:13.965Z,11.40
2019-04-22T05:51:14.617Z,6.00
2019-04-22T05:53:40.316Z,7.75
2019-04-22T05:56:20.725Z,8.70
2019-04-22T05:58:52.797Z,10.00
2019-04-22T06:04:04.007Z,8.20
2019-04-22T06:06:17.911Z,9.23
2019-04-22T06:09:02.224Z,8.33
2019-04-22T06:11:27.085Z,7.10
2019-04-22T06:13:57.607Z,9.70
2019-04-22T06:16:31.362Z,8.30
2019-04-22T06:19:04.467Z,8.70
2019-04-22T06:24:11.160Z,7.50
2019-04-22T06:26:45.814Z,9.90
2019-04-22T06:29:12.310Z,8.73
2019-04-22T06:32:05.497Z,7.50
2019-04-22T06:36:47.622Z,11.37
2019-04-22T06:39:19.057Z,6.93
2019-04-22T06:41:47.727Z,7.43
2019-04-22T06:44:29.751Z,9.27
2019-04-22T06:46:49.112Z,12.10
2019-04-22T06:49:23.834Z,7.90
2019-04-22T06:52:08.026Z,8.80
2019-04-22T06:54:22.969Z,10.98
2019-04-22T06:56:55.922Z,7.45
2019-04-22T06:59:29.811Z,6.83
2019-04-22T07:01:55.072Z,6.70
2019-04-22T07:04:29.711Z,6.90
2019-04-22T07:07:05.357Z,6.53
2019-04-22T07:09:35.006Z,6.47
2019-04-22T07:12:06.408Z,7.90
2019-04-22T07:14:28.637Z,7.70
2019-04-22T07:17:02.233Z,7.40
2019-04-22T07:19:38.374Z,7.40
2019-04-22T07:22:11.317Z,5.77
2019-04-22T07:24:52.758Z,9.43
2019-04-22T07:27:10.285Z,5.73
2019-04-22T07:29:48.825Z,11.60
2019-04-22T07:32:17.300Z,8.10
2019-04-22T07:34:48.875Z,8.78
2019-04-22T07:39:45.375Z,8.30
2019-04-22T07:42:20.357Z,7.00
2019-04-22T07:44:51.174Z,5.83
2019-04-22T07:47:25.734Z,8.43
2019-04-22T07:49:50.810Z,6.20
2019-04-22T07:52:26.226Z,6.87
2019-04-22T07:54:58.376Z,6.97
2019-04-22T07:57:27.824Z,5.87
2019-04-22T08:00:02.870Z,6.63
2019-04-22T08:02:31.772Z,5.73
2019-04-22T08:05:07.063Z,7.50
2019-04-22T08:07:36.058Z,7.17
2019-04-22T08:10:09.269Z,4.97
2019-04-22T08:12:39.073Z,6.12
2019-04-22T08:15:05.476Z,5.47
2019-04-22T08:20:13.952Z,9.57
2019-04-22T08:22:47.626Z,5.23
2019-04-22T08:25:10.318Z,5.87
2019-04-22T08:27:42.864Z,6.33
2019-04-22T08:30:20.501Z,6.83
2019-04-22T08:32:46.353Z,5.07
2019-04-22T08:35:27.928Z,5.30
2019-04-22T08:37:50.763Z,5.10
2019-04-22T08:42:55.270Z,6.50
2019-04-22T08:45:33.355Z,6.70
2019-04-22T08:47:59.156Z,5.70
2019-04-22T08:50:29.529Z,7.77
2019-04-22T08:53:05.832Z,6.20
2019-04-22T08:55:32.853Z,5.93
2019-04-22T09:00:42.537Z,6.30
2019-04-22T09:03:10.958Z,7.00
2019-04-22T09:05:53.021Z,5.40
2019-04-22T09:08:14.149Z,8.10
2019-04-22T09:10:46.801Z,4.97
2019-04-22T09:13:10.209Z,6.67
2019-04-22T09:15:43.672Z,8.55
2019-04-22T09:18:16.191Z,5.70
2019-04-22T09:20:50.902Z,6.80
2019-04-22T09:23:27.106Z,6.00
2019-04-22T09:25:48.655Z,6.20
2019-04-22T09:28:23.060Z,7.17
2019-04-22T09:30:56.637Z,6.40
2019-04-22T09:33:27.633Z,6.67
2019-04-22T09:36:00.199Z,7.73
2019-04-22T09:38:44.987Z,5.20
2019-04-22T09:40:58.428Z,9.07
2019-04-22T09:43:40.995Z,5.83
2019-04-22T09:46:24.753Z,8.50
2019-04-22T09:48:44.167Z,4.73
2019-04-22T09:51:08.593Z,5.27
2019-04-22T09:53:47.017Z,6.17
2019-04-22T09:56:09.787Z,4.47
2019-04-22T09:58:44.730Z,5.83
2019-04-22T10:01:24.285Z,4.93
2019-04-22T10:03:51.650Z,6.67
2019-04-22T10:09:02.098Z,7.70
2019-04-22T10:11:26.852Z,6.72
2019-04-22T10:13:54.190Z,5.50
2019-04-22T10:19:01.032Z,5.95
2019-04-22T10:21:35.843Z,4.62
2019-04-22T10:23:57.973Z,5.33
2019-04-22T10:26:33.459Z,10.43
2019-04-22T10:29:05.951Z,4.30
2019-04-22T10:31:37.030Z,5.10
2019-04-22T10:33:53.211Z,4.67
2019-04-22T10:36:10.027Z,5.60
2019-04-22T10:38:40.194Z,6.90
2019-04-22T10:41:10.404Z,7.50
2019-04-22T10:43:41.196Z,5.03
2019-04-22T10:46:12.141Z,5.35
2019-04-22T10:48:42.156Z,4.50
2019-04-22T10:51:12.819Z,4.23
2019-04-22T10:53:43.792Z,6.33
2019-04-22T10:56:14.762Z,5.97
2019-04-22T10:58:44.768Z,5.60
2019-04-22T11:01:15.770Z,4.73
2019-04-22T11:03:45.669Z,7.33
2019-04-22T11:06:17.024Z,4.63
2019-04-22T11:08:52.802Z,4.03
2019-04-22T11:11:30.093Z,4.22
2019-04-22T11:13:49.636Z,4.90
2019-04-22T11:16:19.453Z,4.83
2019-04-22T11:18:51.571Z,4.97
2019-04-22T11:21:21.331Z,4.33
2019-04-22T11:23:52.383Z,5.28
2019-04-22T11:26:22.248Z,5.70
2019-04-22T11:28:51.881Z,6.83
2019-04-22T11:31:21.507Z,10.30
2019-04-22T11:33:52.417Z,5.00
2019-04-22T11:36:22.281Z,5.10
2019-04-22T11:38:56.422Z,4.45
2019-04-22T11:41:23.537Z,5.00
2019-04-22T11:43:53.676Z,5.87
2019-04-22T11:46:23.464Z,7.95
2019-04-22T11:48:54.130Z,6.05
2019-04-22T11:51:24.343Z,4.50
2019-04-22T11:53:54.782Z,3.90
2019-04-22T11:56:25.185Z,6.87
2019-04-22T11:58:55.202Z,7.43
2019-04-22T12:01:24.886Z,2.90
2019-04-22T12:03:55.818Z,7.37
2019-04-22T12:06:26.261Z,4.80
2019-04-22T12:08:57.436Z,4.97
2019-04-22T12:11:28.221Z,6.15
2019-04-22T12:13:58.074Z,4.72
2019-04-22T12:16:27.709Z,3.75
2019-04-22T12:18:58.694Z,5.78
2019-04-22T12:21:28.984Z,6.85
2019-04-22T12:23:59.217Z,5.87
2019-04-22T12:26:30.498Z,3.00
2019-04-22T12:29:00.434Z,4.83
2019-04-22T12:31:31.382Z,7.33
2019-04-22T12:34:01.499Z,3.47
2019-04-22T12:36:31.103Z,6.97
2019-04-22T12:39:00.629Z,4.80
2019-04-22T12:41:32.022Z,4.30
2019-04-22T12:44:03.152Z,5.30
2019-04-22T12:46:34.235Z,4.47
2019-04-22T12:49:04.489Z,5.00
2019-04-22T12:51:34.407Z,4.80
2019-04-22T12:54:04.016Z,4.10
2019-04-22T12:56:33.545Z,5.50
2019-04-22T12:59:03.865Z,7.00
2019-04-22T13:01:35.050Z,4.57
2019-04-22T13:04:09.526Z,5.33
2019-04-22T13:06:37.615Z,6.60
2019-04-22T13:09:08.547Z,5.20
2019-04-22T13:11:38.953Z,7.53
2019-04-22T13:14:10.618Z,4.00
2019-04-22T13:16:40.866Z,3.73
2019-04-22T13:19:13.143Z,5.70
2019-04-22T13:21:42.757Z,5.33
2019-04-22T13:24:13.530Z,3.47
2019-04-22T13:26:43.407Z,2.97
2019-04-22T13:29:15.024Z,3.90
2019-04-22T13:31:44.878Z,4.70
2019-04-22T13:34:25.561Z,4.43
2019-04-22T13:36:47.049Z,3.20
2019-04-22T13:39:16.943Z,2.90
2019-04-22T13:41:52.215Z,3.05
2019-04-22T13:44:18.971Z,4.00
2019-04-22T13:47:08.261Z,2.97
2019-04-22T13:49:49.449Z,4.45
2019-04-22T13:52:35.654Z,3.30
2019-04-22T13:55:01.748Z,3.00
2019-04-22T13:57:10.537Z,3.95
2019-04-22T13:59:33.461Z,9.33
2019-04-22T14:02:28.638Z,3.67
2019-04-22T14:05:01.084Z,5.87
2019-04-22T14:07:30.890Z,2.70
2019-04-22T14:10:00.416Z,3.00
2019-04-22T14:12:30.786Z,10.57
2019-04-22T14:15:02.119Z,2.70
2019-04-22T14:17:31.851Z,3.03
2019-04-22T14:20:02.609Z,4.87
2019-04-22T14:22:32.560Z,4.90
2019-04-22T14:25:03.041Z,4.15
2019-04-22T14:27:44.398Z,4.20
2019-04-22T14:30:06.453Z,2.97
2019-04-22T14:32:36.553Z,4.45
2019-04-22T14:35:09.187Z,2.43
2019-04-22T14:37:40.297Z,7.03
2019-04-22T14:40:12.304Z,5.65
2019-04-22T14:43:00.822Z,9.48
2019-04-22T14:45:39.405Z,2.70
2019-04-22T14:48:15.680Z,3.53
2019-04-22T14:50:38.965Z,4.20
2019-04-22T14:53:11.223Z,5.63
2019-04-22T14:55:25.047Z,3.45
2019-04-22T14:57:52.925Z,2.77
2019-04-22T15:00:24.143Z,3.77
2019-04-22T15:02:55.365Z,2.57
2019-04-22T15:05:26.064Z,3.08
2019-04-22T15:07:57.066Z,5.07
2019-04-22T15:10:28.093Z,3.23
2019-04-22T15:13:00.574Z,2.50
2019-04-22T15:15:53.313Z,5.10
2019-04-22T15:18:41.945Z,2.40
2019-04-22T15:21:14.758Z,2.98
2019-04-22T15:23:44.577Z,2.80
2019-04-22T15:26:14.712Z,4.10
2019-04-22T15:28:45.162Z,3.73
2019-04-22T15:31:15.261Z,3.00
2019-04-22T15:33:48.208Z,5.63
2019-04-22T15:36:16.145Z,3.00
2019-04-22T15:38:47.191Z,5.57
2019-04-22T15:41:16.832Z,4.43
2019-04-22T15:43:47.751Z,3.25
2019-04-22T15:46:17.976Z,3.10
2019-04-22T15:48:48.483Z,7.07
2019-04-22T15:51:18.548Z,3.70
2019-04-22T15:53:49.562Z,5.83
2019-04-22T15:56:19.101Z,3.75
2019-04-22T15:58:48.678Z,3.00
2019-04-22T16:01:26.005Z,6.27
2019-04-22T16:03:50.318Z,3.57
2019-04-22T16:06:20.007Z,3.30
2019-04-22T16:08:49.875Z,4.73
2019-04-22T16:11:20.019Z,7.30
2019-04-22T16:13:50.546Z,3.10
2019-04-22T16:16:20.674Z,2.40
2019-04-22T16:18:50.717Z,4.50
2019-04-22T16:21:30.319Z,3.27
2019-04-22T16:24:09.438Z,7.90
2019-04-22T16:26:44.831Z,2.98
2019-04-22T16:29:15.784Z,3.00
2019-04-22T16:31:45.570Z,3.05
2019-04-22T16:34:15.516Z,2.93
2019-04-22T16:36:45.296Z,2.37
2019-04-22T16:39:15.304Z,3.00
2019-04-22T16:41:46.562Z,2.27
2019-04-22T16:44:18.642Z,3.00
2019-04-22T16:46:49.817Z,2.50
2019-04-22T16:49:19.680Z,2.83
2019-04-22T16:51:51.929Z,2.60
2019-04-22T16:54:22.150Z,2.60
2019-04-22T16:56:52.249Z,2.70
2019-04-22T16:59:22.573Z,2.07
2019-04-22T17:02:08.480Z,2.70
2019-04-22T17:04:46.787Z,2.87
2019-04-22T17:07:18.077Z,2.50
2019-04-22T17:09:47.974Z,1.83
2019-04-22T17:12:17.593Z,4.83
2019-04-22T17:14:52.683Z,1.97
2019-04-22T17:17:18.430Z,2.43
2019-04-22T17:19:49.295Z,2.20
2019-04-22T17:22:19.736Z,3.70
2019-04-22T17:24:49.917Z,2.53
2019-04-22T17:27:20.187Z,7.90
2019-04-22T17:29:50.585Z,1.70
2019-04-22T17:32:22.719Z,3.80
2019-04-22T17:34:51.919Z,2.07
2019-04-22T17:37:26.579Z,2.50
2019-04-22T17:40:09.744Z,2.17
2019-04-22T17:42:42.340Z,2.07
2019-04-22T17:45:24.323Z,2.40
2019-04-22T17:48:12.857Z,2.33
2019-04-22T17:50:50.725Z,5.67
2019-04-22T17:53:21.515Z,1.95
2019-04-22T17:55:55.759Z,1.93
2019-04-22T17:58:21.840Z,2.23
2019-04-22T18:01:01.330Z,4.90
2019-04-22T18:03:20.359Z,2.20
2019-04-22T18:05:47.202Z,2.70
2019-04-22T18:08:31.555Z,2.33
2019-04-22T18:10:58.493Z,4.53
2019-04-22T18:13:36.262Z,2.67
2019-04-22T18:16:05.460Z,4.70
2019-04-22T18:18:37.410Z,2.57
2019-04-22T18:21:00.711Z,3.00
2019-04-22T18:23:23.968Z,6.65
2019-04-22T18:26:09.819Z,3.25
2019-04-22T18:28:43.504Z,3.60
2019-04-22T18:31:10.400Z,3.10
2019-04-22T18:33:38.576Z,11.37
2019-04-22T18:36:12.608Z,3.90
2019-04-22T18:38:58.486Z,3.23
2019-04-22T18:41:12.831Z,2.97
2019-04-22T18:43:50.421Z,3.00
2019-04-22T18:46:23.245Z,3.80
2019-04-22T18:48:53.817Z,3.30
2019-04-22T18:51:28.956Z,2.70
2019-04-22T18:54:08.811Z,3.25
2019-04-22T18:56:43.509Z,3.13
2019-04-22T18:59:02.172Z,3.97
2019-04-22T19:01:24.011Z,2.73
2019-04-22T19:04:01.377Z,6.77
2019-04-22T19:06:48.975Z,3.47
2019-04-22T19:09:20.467Z,2.70
2019-04-22T19:12:03.139Z,3.83
2019-04-22T19:14:37.220Z,5.50
2019-04-22T19:16:53.983Z,2.63
2019-04-22T19:21:56.038Z,2.53
2019-04-22T19:24:24.542Z,6.78
2019-04-22T19:26:58.629Z,4.90
2019-04-22T19:29:32.503Z,4.73
2019-04-22T19:31:56.958Z,3.77
2019-04-22T19:34:32.043Z,3.83
2019-04-22T19:37:05.653Z,4.90
2019-04-22T19:39:36.104Z,5.17
2019-04-22T19:42:09.577Z,5.43
2019-04-22T19:44:40.371Z,4.05
2019-04-22T19:49:52.399Z,7.42
2019-04-22T19:52:21.042Z,2.90
2019-04-22T19:54:47.778Z,5.72
2019-04-22T19:57:11.731Z,4.57
2019-04-22T19:59:51.452Z,3.63
2019-04-22T20:02:29.066Z,3.53
2019-04-22T20:05:16.452Z,4.83
2019-04-22T20:07:40.105Z,4.77
2019-04-22T20:10:19.594Z,10.15
2019-04-22T20:12:42.813Z,8.27
2019-04-22T20:15:14.189Z,2.67
2019-04-22T20:18:08.532Z,5.87
2019-04-22T20:20:25.951Z,2.57
2019-04-22T20:22:49.494Z,4.53
2019-04-22T20:25:12.988Z,4.50
2019-04-22T20:27:55.832Z,2.60
2019-04-22T20:30:31.480Z,7.83
2019-04-22T20:32:56.632Z,3.93
2019-04-22T20:35:33.047Z,5.20
2019-04-22T20:38:02.919Z,5.73
2019-04-22T20:40:37.865Z,3.20
2019-04-22T20:43:07.627Z,4.27
2019-04-22T20:45:37.825Z,6.23
2019-04-22T20:47:57.417Z,3.33
2019-04-22T20:50:41.778Z,4.33
2019-04-22T20:53:11.757Z,5.45
2019-04-22T20:55:46.456Z,5.57
2019-04-22T20:58:12.006Z,3.47
2019-04-22T21:00:38.914Z,3.40
2019-04-22T21:03:06.545Z,3.80
2019-04-22T21:05:37.981Z,3.57
2019-04-22T21:08:18.991Z,5.50
2019-04-22T21:10:43.372Z,5.10
2019-04-22T21:13:12.782Z,4.70
2019-04-22T21:16:02.197Z,4.93
2019-04-22T21:18:22.156Z,9.43
2019-04-22T21:20:57.524Z,6.63
2019-04-22T21:23:22.930Z,8.23
2019-04-22T21:25:54.835Z,7.47
2019-04-22T21:28:25.676Z,7.80
2019-04-22T21:30:56.882Z,6.55
2019-04-22T21:33:23.601Z,10.40
2019-04-22T21:38:32.833Z,5.78
2019-04-22T21:41:06.456Z,6.37
2019-04-22T21:43:38.597Z,8.20
2019-04-22T21:46:11.753Z,5.30
2019-04-22T21:48:44.853Z,8.03
2019-04-22T21:51:10.815Z,15.30
2019-04-22T21:53:50.484Z,12.75
2019-04-22T21:56:31.861Z,5.63
2019-04-22T21:58:55.976Z,7.00
2019-04-22T22:01:47.348Z,8.80
2019-04-22T22:04:04.796Z,9.03
2019-04-22T22:06:25.917Z,9.20
2019-04-22T22:09:09.279Z,8.57
2019-04-22T22:11:35.921Z,7.03
2019-04-22T22:14:07.583Z,10.13
2019-04-22T22:16:33.215Z,5.80
2019-04-22T22:19:11.050Z,6.17
2019-04-22T22:24:21.137Z,7.70
2019-04-22T22:26:45.021Z,7.17
2019-04-22T22:29:31.794Z,9.90
2019-04-22T22:31:52.914Z,8.20
2019-04-22T22:34:36.164Z,7.60
2019-04-22T22:36:46.444Z,6.20
2019-04-22T22:39:14.098Z,8.13
2019-04-22T22:41:34.267Z,9.03
2019-04-22T22:44:14.121Z,11.30
2019-04-22T22:46:51.482Z,10.70
2019-04-22T22:49:29.922Z,10.03
2019-04-22T22:52:26.247Z,8.60
2019-04-22T22:54:30.459Z,7.43
2019-04-22T22:57:00.483Z,9.37
2019-04-22T22:59:36.153Z,7.37
2019-04-22T23:02:00.246Z,8.93
2019-04-22T23:04:41.041Z,10.33
2019-04-22T23:07:13.128Z,8.83
2019-04-22T23:09:42.226Z,12.20
2019-04-22T23:14:45.092Z,10.90
2019-04-22T23:17:01.210Z,10.17
2019-04-22T23:19:24.002Z,10.60
2019-04-22T23:22:01.005Z,10.00
2019-04-22T23:24:50.585Z,8.43
2019-04-22T23:27:29.014Z,11.20
2019-04-22T23:30:09.224Z,12.80
2019-04-22T23:32:40.003Z,8.50
2019-04-22T23:35:30.729Z,10.90
2019-04-22T23:37:58.509Z,11.20
2019-04-22T23:43:15.828Z,12.37
2019-04-22T23:45:41.592Z,9.70
2019-04-22T23:48:06.801Z,9.90
2019-04-22T23:50:47.705Z,10.07
2019-04-22T23:56:04.201Z,10.15
